sensor_id;sensor_type;location;lat;lon;timestamp;pressure;altitude;pressure_sealevel;temperature;humidity
63552;BME280;49698;48.072;7.800;2022-12-10T00:01:26;98185.78;;;0.77;97.50
63552;BME280;49698;48.072;7.800;2022-12-10T00:03:59;98188.97;;;0.79;97.12
63552;BME280;49698;48.072;7.800;2022-12-10T00:06:29;98182.09;;;0.78;97.22
63552;BME280;49698;48.072;7.800;2022-12-10T00:08:58;98184.75;;;0.78;96.98
63552;BME280;49698;48.072;7.800;2022-12-10T00:11:27;98183.38;;;0.75;97.19
63552;BME280;49698;48.072;7.800;2022-12-10T00:13:55;98184.19;;;0.76;97.17
63552;BME280;49698;48.072;7.800;2022-12-10T00:16:25;98187.09;;;0.74;97.20
63552;BME280;49698;48.072;7.800;2022-12-10T00:18:54;98189.97;;;0.72;97.21
63552;BME280;49698;48.072;7.800;2022-12-10T00:21:24;98192.06;;;0.70;97.43
63552;BME280;49698;48.072;7.800;2022-12-10T00:23:53;98185.72;;;0.71;97.36
63552;BME280;49698;48.072;7.800;2022-12-10T00:26:23;98188.38;;;0.71;97.56
63552;BME280;49698;48.072;7.800;2022-12-10T00:28:52;98189.97;;;0.72;97.54
63552;BME280;49698;48.072;7.800;2022-12-10T00:31:24;98204.78;;;0.73;97.62
63552;BME280;49698;48.072;7.800;2022-12-10T00:33:54;98200.06;;;0.76;97.53
63552;BME280;49698;48.072;7.800;2022-12-10T00:36:28;98197.41;;;0.76;97.70
63552;BME280;49698;48.072;7.800;2022-12-10T00:38:58;98197.16;;;0.77;97.64
63552;BME280;49698;48.072;7.800;2022-12-10T00:41:27;98185.28;;;0.80;97.23
63552;BME280;49698;48.072;7.800;2022-12-10T00:43:55;98181.84;;;0.79;97.29
63552;BME280;49698;48.072;7.800;2022-12-10T00:46:23;98181.03;;;0.79;97.48
63552;BME280;49698;48.072;7.800;2022-12-10T00:48:52;98176.00;;;0.77;97.43
63552;BME280;49698;48.072;7.800;2022-12-10T00:51:21;98182.34;;;0.76;97.71
63552;BME280;49698;48.072;7.800;2022-12-10T00:53:53;98175.69;;;0.73;97.57
63552;BME280;49698;48.072;7.800;2022-12-10T00:56:25;98186.25;;;0.73;97.85
63552;BME280;49698;48.072;7.800;2022-12-10T00:58:53;98209.28;;;0.73;97.96
63552;BME280;49698;48.072;7.800;2022-12-10T01:01:24;98214.34;;;0.75;97.83
63552;BME280;49698;48.072;7.800;2022-12-10T01:03:55;98217.50;;;0.77;97.86
63552;BME280;49698;48.072;7.800;2022-12-10T01:06:26;98222.00;;;0.76;97.88
63552;BME280;49698;48.072;7.800;2022-12-10T01:08:57;98217.50;;;0.77;97.50
63552;BME280;49698;48.072;7.800;2022-12-10T01:11:29;98232.34;;;0.78;97.72
63552;BME280;49698;48.072;7.800;2022-12-10T01:13:58;98236.59;;;0.79;97.48
63552;BME280;49698;48.072;7.800;2022-12-10T01:16:27;98233.38;;;0.77;97.58
63552;BME280;49698;48.072;7.800;2022-12-10T01:18:56;98231.00;;;0.75;97.44
63552;BME280;49698;48.072;7.800;2022-12-10T01:21:25;98237.09;;;0.76;97.64
63552;BME280;49698;48.072;7.800;2022-12-10T01:23:56;98231.78;;;0.76;97.77
63552;BME280;49698;48.072;7.800;2022-12-10T01:26:27;98224.13;;;0.74;97.84
63552;BME280;49698;48.072;7.800;2022-12-10T01:28:56;98200.53;;;0.72;97.75
63552;BME280;49698;48.072;7.800;2022-12-10T01:31:26;98198.38;;;0.69;97.81
63552;BME280;49698;48.072;7.800;2022-12-10T01:33:55;98206.84;;;0.66;97.71
63552;BME280;49698;48.072;7.800;2022-12-10T01:36:28;98206.03;;;0.66;97.82
63552;BME280;49698;48.072;7.800;2022-12-10T01:38:58;98200.97;;;0.64;97.92
63552;BME280;49698;48.072;7.800;2022-12-10T01:41:31;98209.47;;;0.66;98.31
63552;BME280;49698;48.072;7.800;2022-12-10T01:44:02;98218.22;;;0.67;98.07
63552;BME280;49698;48.072;7.800;2022-12-10T01:46:32;98224.03;;;0.69;98.26
63552;BME280;49698;48.072;7.800;2022-12-10T01:49:03;98230.69;;;0.71;97.91
63552;BME280;49698;48.072;7.800;2022-12-10T01:51:34;98227.00;;;0.72;98.34
63552;BME280;49698;48.072;7.800;2022-12-10T01:54:08;98224.13;;;0.74;98.05
63552;BME280;49698;48.072;7.800;2022-12-10T01:56:40;98235.22;;;0.76;98.21
63552;BME280;49698;48.072;7.800;2022-12-10T01:59:10;98229.72;;;0.78;98.18
63552;BME280;49698;48.072;7.800;2022-12-10T02:01:46;98231.31;;;0.79;98.18
63552;BME280;49698;48.072;7.800;2022-12-10T02:04:27;98233.94;;;0.79;97.86
63552;BME280;49698;48.072;7.800;2022-12-10T02:07:00;98233.94;;;0.79;98.06
63552;BME280;49698;48.072;7.800;2022-12-10T02:09:35;98233.16;;;0.78;97.72
63552;BME280;49698;48.072;7.800;2022-12-10T02:12:11;98233.38;;;0.77;97.71
63552;BME280;49698;48.072;7.800;2022-12-10T02:14:52;98234.44;;;0.76;98.13
63552;BME280;49698;48.072;7.800;2022-12-10T02:17:25;98237.09;;;0.76;97.94
63552;BME280;49698;48.072;7.800;2022-12-10T02:20:02;98243.97;;;0.77;97.81
63552;BME280;49698;48.072;7.800;2022-12-10T02:22:35;98243.97;;;0.77;97.90
63552;BME280;49698;48.072;7.800;2022-12-10T02:25:07;98245.59;;;0.78;97.54
63552;BME280;49698;48.072;7.800;2022-12-10T02:27:45;98242.69;;;0.79;97.72
63552;BME280;49698;48.072;7.800;2022-12-10T02:30:15;98241.09;;;0.78;97.69
63552;BME280;49698;48.072;7.800;2022-12-10T02:32:44;98242.41;;;0.81;97.69
63552;BME280;49698;48.072;7.800;2022-12-10T02:35:24;98238.44;;;0.78;97.69
63552;BME280;49698;48.072;7.800;2022-12-10T02:37:56;98240.28;;;0.78;97.44
63552;BME280;49698;48.072;7.800;2022-12-10T02:40:31;98240.28;;;0.78;98.02
63552;BME280;49698;48.072;7.800;2022-12-10T02:43:01;98225.69;;;0.75;97.72
63552;BME280;49698;48.072;7.800;2022-12-10T02:45:31;98234.44;;;0.76;97.91
63552;BME280;49698;48.072;7.800;2022-12-10T02:48:03;98232.84;;;0.75;97.70
63552;BME280;49698;48.072;7.800;2022-12-10T02:50:37;98241.31;;;0.77;98.18
63552;BME280;49698;48.072;7.800;2022-12-10T02:53:05;98239.72;;;0.76;97.97
63552;BME280;49698;48.072;7.800;2022-12-10T02:55:45;98245.81;;;0.76;97.79
63552;BME280;49698;48.072;7.800;2022-12-10T02:58:23;98240.28;;;0.78;97.84
63552;BME280;49698;48.072;7.800;2022-12-10T03:01:01;98241.88;;;0.79;97.89
63552;BME280;49698;48.072;7.800;2022-12-10T03:03:37;98239.78;;;0.81;97.94
63552;BME280;49698;48.072;7.800;2022-12-10T03:06:15;98229.19;;;0.81;97.71
63552;BME280;49698;48.072;7.800;2022-12-10T03:08:48;98227.59;;;0.80;97.93
63552;BME280;49698;48.072;7.800;2022-12-10T03:11:19;98230.25;;;0.80;97.96
63552;BME280;49698;48.072;7.800;2022-12-10T03:13:54;98238.19;;;0.80;97.76
63552;BME280;49698;48.072;7.800;2022-12-10T03:16:26;98232.09;;;0.79;97.85
63552;BME280;49698;48.072;7.800;2022-12-10T03:18:58;98238.19;;;0.80;97.75
63552;BME280;49698;48.072;7.800;2022-12-10T03:21:29;98227.59;;;0.80;97.87
63552;BME280;49698;48.072;7.800;2022-12-10T03:23:59;98232.91;;;0.80;97.99
63552;BME280;49698;48.072;7.800;2022-12-10T03:26:27;98227.34;;;0.81;97.89
63552;BME280;49698;48.072;7.800;2022-12-10T03:28:58;98219.41;;;0.81;97.74
63552;BME280;49698;48.072;7.800;2022-12-10T03:31:30;98221.50;;;0.79;97.82
63552;BME280;49698;48.072;7.800;2022-12-10T03:33:59;98231.03;;;0.80;97.90
63552;BME280;49698;48.072;7.800;2022-12-10T03:36:29;98234.47;;;0.81;98.13
63552;BME280;49698;48.072;7.800;2022-12-10T03:38:58;98227.91;;;0.83;97.76
63552;BME280;49698;48.072;7.800;2022-12-10T03:41:26;98224.47;;;0.83;97.69
63552;BME280;49698;48.072;7.800;2022-12-10T03:43:55;98229.50;;;0.84;97.85
63552;BME280;49698;48.072;7.800;2022-12-10T03:46:25;98234.78;;;0.84;97.60
63552;BME280;49698;48.072;7.800;2022-12-10T03:48:55;98232.41;;;0.83;97.94
63552;BME280;49698;48.072;7.800;2022-12-10T03:51:23;98222.63;;;0.83;97.66
63552;BME280;49698;48.072;7.800;2022-12-10T03:53:51;98221.25;;;0.81;98.00
63552;BME280;49698;48.072;7.800;2022-12-10T03:56:19;98217.03;;;0.80;97.61
63552;BME280;49698;48.072;7.800;2022-12-10T03:58:48;98214.34;;;0.75;97.80
63552;BME280;49698;48.072;7.800;2022-12-10T04:01:16;98218.81;;;0.74;98.25
63552;BME280;49698;48.072;7.800;2022-12-10T04:03:44;98229.63;;;0.72;98.37
63552;BME280;49698;48.072;7.800;2022-12-10T04:06:16;98228.56;;;0.73;98.43
63552;BME280;49698;48.072;7.800;2022-12-10T04:08:45;98224.59;;;0.71;98.33
63552;BME280;49698;48.072;7.800;2022-12-10T04:11:14;98228.84;;;0.72;98.58
63552;BME280;49698;48.072;7.800;2022-12-10T04:13:43;98229.09;;;0.70;98.30
63552;BME280;49698;48.072;7.800;2022-12-10T04:16:30;98230.13;;;0.69;98.52
63552;BME280;49698;48.072;7.800;2022-12-10T04:18:59;98235.41;;;0.69;98.36
63552;BME280;49698;48.072;7.800;2022-12-10T04:21:31;98231.97;;;0.69;98.47
63552;BME280;49698;48.072;7.800;2022-12-10T04:24:19;98231.19;;;0.68;98.42
63552;BME280;49698;48.072;7.800;2022-12-10T04:27:08;98223.00;;;0.70;98.70
63552;BME280;49698;48.072;7.800;2022-12-10T04:29:37;98218.53;;;0.70;98.45
63552;BME280;49698;48.072;7.800;2022-12-10T04:32:06;98212.44;;;0.70;98.07
63552;BME280;49698;48.072;7.800;2022-12-10T04:34:34;98221.97;;;0.71;98.04
63552;BME280;49698;48.072;7.800;2022-12-10T04:37:04;98223.53;;;0.72;98.34
63552;BME280;49698;48.072;7.800;2022-12-10T04:39:33;98229.41;;;0.74;98.34
63552;BME280;49698;48.072;7.800;2022-12-10T04:42:01;98229.72;;;0.78;98.10
63552;BME280;49698;48.072;7.800;2022-12-10T04:44:29;98232.09;;;0.79;98.16
63552;BME280;49698;48.072;7.800;2022-12-10T04:46:57;98232.63;;;0.81;98.09
63552;BME280;49698;48.072;7.800;2022-12-10T04:49:25;98221.81;;;0.83;98.06
63552;BME280;49698;48.072;7.800;2022-12-10T04:51:54;98225.00;;;0.85;98.00
63552;BME280;49698;48.072;7.800;2022-12-10T04:54:24;98226.63;;;0.86;98.02
63552;BME280;49698;48.072;7.800;2022-12-10T04:56:52;98230.28;;;0.85;98.08
63552;BME280;49698;48.072;7.800;2022-12-10T04:59:20;98222.34;;;0.85;98.18
63552;BME280;49698;48.072;7.800;2022-12-10T05:01:48;98222.88;;;0.82;97.66
63552;BME280;49698;48.072;7.800;2022-12-10T05:04:18;98234.47;;;0.81;97.99
63552;BME280;49698;48.072;7.800;2022-12-10T05:06:48;98226.00;;;0.79;97.87
63552;BME280;49698;48.072;7.800;2022-12-10T05:09:17;98238.66;;;0.77;98.05
63552;BME280;49698;48.072;7.800;2022-12-10T05:11:46;98235.50;;;0.75;98.19
63552;BME280;49698;48.072;7.800;2022-12-10T05:14:15;98243.41;;;0.75;97.97
63552;BME280;49698;48.072;7.800;2022-12-10T05:16:43;98249.75;;;0.73;98.21
63552;BME280;49698;48.072;7.800;2022-12-10T05:19:11;98251.59;;;0.73;98.21
63552;BME280;49698;48.072;7.800;2022-12-10T05:21:39;98243.66;;;0.73;97.99
63552;BME280;49698;48.072;7.800;2022-12-10T05:24:25;98240.47;;;0.71;97.94
63552;BME280;49698;48.072;7.800;2022-12-10T05:26:55;98233.59;;;0.70;98.06
63552;BME280;49698;48.072;7.800;2022-12-10T05:29:24;98247.03;;;0.68;97.95
63552;BME280;49698;48.072;7.800;2022-12-10T05:31:52;98245.44;;;0.67;98.10
63552;BME280;49698;48.072;7.800;2022-12-10T05:34:20;98251.22;;;0.64;98.21
63552;BME280;49698;48.072;7.800;2022-12-10T05:36:48;98250.13;;;0.60;98.09
63552;BME280;49698;48.072;7.800;2022-12-10T05:39:17;98252.72;;;0.55;98.39
63552;BME280;49698;48.072;7.800;2022-12-10T05:41:45;98258.22;;;0.54;98.64
63552;BME280;49698;48.072;7.800;2022-12-10T05:44:14;98256.91;;;0.51;98.58
63552;BME280;49698;48.072;7.800;2022-12-10T05:46:42;98262.19;;;0.51;98.65
63552;BME280;49698;48.072;7.800;2022-12-10T05:49:10;98278.03;;;0.51;98.59
63552;BME280;49698;48.072;7.800;2022-12-10T05:51:38;98271.97;;;0.51;98.88
63552;BME280;49698;48.072;7.800;2022-12-10T05:54:06;98268.25;;;0.52;98.84
63552;BME280;49698;48.072;7.800;2022-12-10T05:56:36;98277.78;;;0.53;98.85
63552;BME280;49698;48.072;7.800;2022-12-10T05:59:05;98278.03;;;0.51;98.89
63552;BME280;49698;48.072;7.800;2022-12-10T06:01:38;98279.06;;;0.50;98.60
63552;BME280;49698;48.072;7.800;2022-12-10T06:04:06;98279.81;;;0.45;98.67
63552;BME280;49698;48.072;7.800;2022-12-10T06:06:36;98288.78;;;0.44;98.95
63552;BME280;49698;48.072;7.800;2022-12-10T06:09:05;98293.28;;;0.44;98.94
63552;BME280;49698;48.072;7.800;2022-12-10T06:11:33;98301.44;;;0.42;98.89
63552;BME280;49698;48.072;7.800;2022-12-10T06:14:01;98303.28;;;0.42;99.09
63552;BME280;49698;48.072;7.800;2022-12-10T06:16:30;98294.56;;;0.41;99.25
63552;BME280;49698;48.072;7.800;2022-12-10T06:18:59;98294.34;;;0.43;99.06
63552;BME280;49698;48.072;7.800;2022-12-10T06:21:27;98299.38;;;0.44;99.25
63552;BME280;49698;48.072;7.800;2022-12-10T06:23:55;98297.78;;;0.43;99.01
63552;BME280;49698;48.072;7.800;2022-12-10T06:26:25;98305.44;;;0.45;98.99
63552;BME280;49698;48.072;7.800;2022-12-10T06:28:56;98304.41;;;0.46;99.37
63552;BME280;49698;48.072;7.800;2022-12-10T06:31:24;98317.38;;;0.47;99.21
63552;BME280;49698;48.072;7.800;2022-12-10T06:33:52;98304.97;;;0.48;99.23
63552;BME280;49698;48.072;7.800;2022-12-10T06:36:22;98325.88;;;0.49;99.14
63552;BME280;49698;48.072;7.800;2022-12-10T06:38:50;98321.94;;;0.52;99.18
63552;BME280;49698;48.072;7.800;2022-12-10T06:41:18;98330.66;;;0.53;99.18
63552;BME280;49698;48.072;7.800;2022-12-10T06:43:47;98326.19;;;0.53;98.96
63552;BME280;49698;48.072;7.800;2022-12-10T06:46:17;98323.53;;;0.53;99.04
63552;BME280;49698;48.072;7.800;2022-12-10T06:48:46;98320.88;;;0.53;99.13
63552;BME280;49698;48.072;7.800;2022-12-10T06:51:14;98327.78;;;0.54;99.07
63552;BME280;49698;48.072;7.800;2022-12-10T06:53:45;98328.34;;;0.56;98.93
63552;BME280;49698;48.072;7.800;2022-12-10T06:56:15;98328.34;;;0.56;99.01
63552;BME280;49698;48.072;7.800;2022-12-10T06:58:45;98335.22;;;0.57;99.08
63552;BME280;49698;48.072;7.800;2022-12-10T07:01:15;98344.78;;;0.58;99.14
63552;BME280;49698;48.072;7.800;2022-12-10T07:03:43;98343.72;;;0.59;98.96
63552;BME280;49698;48.072;7.800;2022-12-10T07:06:11;98345.31;;;0.60;99.04
63552;BME280;49698;48.072;7.800;2022-12-10T07:08:39;98348.22;;;0.59;99.06
63552;BME280;49698;48.072;7.800;2022-12-10T07:11:11;98343.16;;;0.57;99.09
63552;BME280;49698;48.072;7.800;2022-12-10T07:13:40;98351.09;;;0.57;99.22
63552;BME280;49698;48.072;7.800;2022-12-10T07:16:12;98350.06;;;0.58;99.43
63552;BME280;49698;48.072;7.800;2022-12-10T07:18:41;98354.31;;;0.59;99.56
63552;BME280;49698;48.072;7.800;2022-12-10T07:21:15;98356.94;;;0.59;99.61
63552;BME280;49698;48.072;7.800;2022-12-10T07:23:43;98359.81;;;0.58;99.47
63552;BME280;49698;48.072;7.800;2022-12-10T07:26:13;98360.88;;;0.57;99.22
63552;BME280;49698;48.072;7.800;2022-12-10T07:28:41;98365.34;;;0.56;99.37
63552;BME280;49698;48.072;7.800;2022-12-10T07:31:19;98370.66;;;0.56;99.60
63552;BME280;49698;48.072;7.800;2022-12-10T07:33:48;98378.09;;;0.59;99.66
63552;BME280;49698;48.072;7.800;2022-12-10T07:36:16;98378.09;;;0.59;99.64
63552;BME280;49698;48.072;7.800;2022-12-10T07:38:44;98386.03;;;0.59;99.77
63552;BME280;49698;48.072;7.800;2022-12-10T07:41:14;98384.44;;;0.58;99.32
63552;BME280;49698;48.072;7.800;2022-12-10T07:43:44;98389.22;;;0.61;99.76
63552;BME280;49698;48.072;7.800;2022-12-10T07:46:15;98385.78;;;0.61;99.39
63552;BME280;49698;48.072;7.800;2022-12-10T07:48:45;98396.63;;;0.59;99.46
63552;BME280;49698;48.072;7.800;2022-12-10T07:51:14;98397.66;;;0.58;99.36
63552;BME280;49698;48.072;7.800;2022-12-10T07:53:43;98401.09;;;0.59;99.57
63552;BME280;49698;48.072;7.800;2022-12-10T07:56:11;98399.25;;;0.59;99.40
63552;BME280;49698;48.072;7.800;2022-12-10T07:58:42;98400.06;;;0.60;99.73
63552;BME280;49698;48.072;7.800;2022-12-10T08:01:14;98402.44;;;0.61;99.91
63552;BME280;49698;48.072;7.800;2022-12-10T08:03:42;98399.56;;;0.63;99.61
63552;BME280;49698;48.072;7.800;2022-12-10T08:06:12;98405.09;;;0.61;99.76
63552;BME280;49698;48.072;7.800;2022-12-10T08:08:42;98403.03;;;0.63;99.76
63552;BME280;49698;48.072;7.800;2022-12-10T08:11:11;98415.66;;;0.61;99.21
63552;BME280;49698;48.072;7.800;2022-12-10T08:13:42;98419.09;;;0.62;99.42
63552;BME280;49698;48.072;7.800;2022-12-10T08:16:12;98422.00;;;0.60;99.60
63552;BME280;49698;48.072;7.800;2022-12-10T08:18:42;98423.06;;;0.59;99.61
63552;BME280;49698;48.072;7.800;2022-12-10T08:21:11;98429.63;;;0.57;99.57
63552;BME280;49698;48.072;7.800;2022-12-10T08:23:39;98432.50;;;0.55;99.92
63552;BME280;49698;48.072;7.800;2022-12-10T08:26:09;98426.44;;;0.55;99.76
63552;BME280;49698;48.072;7.800;2022-12-10T08:28:38;98434.59;;;0.53;99.80
63552;BME280;49698;48.072;7.800;2022-12-10T08:31:09;98432.75;;;0.54;99.86
63552;BME280;49698;48.072;7.800;2022-12-10T08:33:38;98433.31;;;0.56;99.95
63552;BME280;49698;48.072;7.800;2022-12-10T08:36:08;98432.03;;;0.58;99.86
63552;BME280;49698;48.072;7.800;2022-12-10T08:38:38;98429.94;;;0.60;99.74
63552;BME280;49698;48.072;7.800;2022-12-10T08:41:07;98436.34;;;0.64;99.95
63552;BME280;49698;48.072;7.800;2022-12-10T08:43:36;98429.78;;;0.67;99.79
63552;BME280;49698;48.072;7.800;2022-12-10T08:46:04;98444.34;;;0.69;99.59
63552;BME280;49698;48.072;7.800;2022-12-10T08:48:34;98439.06;;;0.69;99.40
63552;BME280;49698;48.072;7.800;2022-12-10T08:51:03;98438.03;;;0.70;99.60
63552;BME280;49698;48.072;7.800;2022-12-10T08:53:31;98437.53;;;0.73;99.62
63552;BME280;49698;48.072;7.800;2022-12-10T08:55:59;98447.88;;;0.75;99.32
63552;BME280;49698;48.072;7.800;2022-12-10T08:58:32;98442.34;;;0.77;99.32
63552;BME280;49698;48.072;7.800;2022-12-10T09:01:05;98455.56;;;0.77;99.56
63552;BME280;49698;48.072;7.800;2022-12-10T09:03:37;98462.47;;;0.78;99.10
63552;BME280;49698;48.072;7.800;2022-12-10T09:06:08;98459.25;;;0.76;99.20
63552;BME280;49698;48.072;7.800;2022-12-10T09:08:37;98456.63;;;0.76;99.25
63552;BME280;49698;48.072;7.800;2022-12-10T09:11:06;98465.59;;;0.75;99.34
63552;BME280;49698;48.072;7.800;2022-12-10T09:13:35;98474.34;;;0.75;99.72
63552;BME280;49698;48.072;7.800;2022-12-10T09:16:04;98472.00;;;0.79;99.19
63552;BME280;49698;48.072;7.800;2022-12-10T09:18:32;98474.66;;;0.79;99.47
63552;BME280;49698;48.072;7.800;2022-12-10T09:21:05;98479.47;;;0.82;99.56
63552;BME280;49698;48.072;7.800;2022-12-10T09:23:34;98481.59;;;0.85;99.37
63552;BME280;49698;48.072;7.800;2022-12-10T09:26:05;98481.59;;;0.85;99.34
63552;BME280;49698;48.072;7.800;2022-12-10T09:28:35;98488.53;;;0.86;99.42
63552;BME280;49698;48.072;7.800;2022-12-10T09:31:05;98491.16;;;0.86;99.41
63552;BME280;49698;48.072;7.800;2022-12-10T09:33:37;98499.66;;;0.88;99.05
63552;BME280;49698;48.072;7.800;2022-12-10T09:36:09;98493.09;;;0.90;99.48
63552;BME280;49698;48.072;7.800;2022-12-10T09:38:39;98497.06;;;0.93;99.12
63552;BME280;49698;48.072;7.800;2022-12-10T09:41:20;98491.31;;;0.96;98.91
63552;BME280;49698;48.072;7.800;2022-12-10T09:43:58;98496.13;;;0.99;99.04
63552;BME280;49698;48.072;7.800;2022-12-10T09:46:36;98493.00;;;1.02;99.04
63552;BME280;49698;48.072;7.800;2022-12-10T09:49:13;98493.31;;;1.06;98.79
63552;BME280;49698;48.072;7.800;2022-12-10T09:51:48;98492.00;;;1.08;98.53
63552;BME280;49698;48.072;7.800;2022-12-10T09:54:24;98487.28;;;1.10;98.71
63552;BME280;49698;48.072;7.800;2022-12-10T09:56:54;98486.72;;;1.08;98.52
63552;BME280;49698;48.072;7.800;2022-12-10T09:59:29;98484.25;;;1.02;98.38
63552;BME280;49698;48.072;7.800;2022-12-10T10:02:09;98478.66;;;0.98;98.56
63552;BME280;49698;48.072;7.800;2022-12-10T10:04:38;98483.38;;;0.96;98.74
63552;BME280;49698;48.072;7.800;2022-12-10T10:07:10;98484.72;;;0.98;98.87
63552;BME280;49698;48.072;7.800;2022-12-10T10:09:44;98487.69;;;1.02;98.90
63552;BME280;49698;48.072;7.800;2022-12-10T10:12:13;98494.34;;;1.05;98.63
63552;BME280;49698;48.072;7.800;2022-12-10T10:14:42;98492.25;;;1.07;98.62
63552;BME280;49698;48.072;7.800;2022-12-10T10:17:16;98491.53;;;1.11;98.81
63552;BME280;49698;48.072;7.800;2022-12-10T10:19:46;98497.38;;;1.13;98.50
63552;BME280;49698;48.072;7.800;2022-12-10T10:22:17;98506.38;;;1.12;98.44
63552;BME280;49698;48.072;7.800;2022-12-10T10:24:46;98504.75;;;1.11;98.45
63552;BME280;49698;48.072;7.800;2022-12-10T10:27:16;98512.16;;;1.09;98.64
63552;BME280;49698;48.072;7.800;2022-12-10T10:29:47;98503.09;;;1.05;98.46
63552;BME280;49698;48.072;7.800;2022-12-10T10:32:20;98502.78;;;1.02;98.68
63552;BME280;49698;48.072;7.800;2022-12-10T10:34:53;98500.59;;;0.98;98.65
63552;BME280;49698;48.072;7.800;2022-12-10T10:37:26;98512.47;;;0.96;98.76
63552;BME280;49698;48.072;7.800;2022-12-10T10:39:56;98505.00;;;0.93;98.68
63552;BME280;49698;48.072;7.800;2022-12-10T10:42:34;98509.75;;;0.91;98.98
63552;BME280;49698;48.072;7.800;2022-12-10T10:45:06;98502.06;;;0.89;99.09
63552;BME280;49698;48.072;7.800;2022-12-10T10:47:35;98504.94;;;0.88;98.82
63552;BME280;49698;48.072;7.800;2022-12-10T10:50:05;98506.53;;;0.89;99.09
63552;BME280;49698;48.072;7.800;2022-12-10T10:52:37;98511.75;;;0.84;98.82
63552;BME280;49698;48.072;7.800;2022-12-10T10:55:31;98510.38;;;0.81;98.80
63552;BME280;49698;48.072;7.800;2022-12-10T10:58:03;98518.56;;;0.80;99.05
63552;BME280;49698;48.072;7.800;2022-12-10T11:00:31;98522.28;;;0.79;98.90
63552;BME280;49698;48.072;7.800;2022-12-10T11:02:59;98520.09;;;0.76;98.73
63552;BME280;49698;48.072;7.800;2022-12-10T11:05:29;98517.13;;;0.72;98.99
63552;BME280;49698;48.072;7.800;2022-12-10T11:08:05;98519.78;;;0.72;99.33
63552;BME280;49698;48.072;7.800;2022-12-10T11:10:34;98525.31;;;0.70;99.01
63552;BME280;49698;48.072;7.800;2022-12-10T11:13:06;98519.44;;;0.68;98.69
63552;BME280;49698;48.072;7.800;2022-12-10T11:15:36;98525.78;;;0.67;99.14
63552;BME280;49698;48.072;7.800;2022-12-10T11:18:24;98517.06;;;0.67;99.32
63552;BME280;49698;48.072;7.800;2022-12-10T11:21:01;98516.81;;;0.68;98.89
63552;BME280;49698;48.072;7.800;2022-12-10T11:23:37;98524.53;;;0.70;99.10
63552;BME280;49698;48.072;7.800;2022-12-10T11:26:15;98525.06;;;0.72;99.11
63552;BME280;49698;48.072;7.800;2022-12-10T11:28:56;98513.69;;;0.71;98.93
63552;BME280;49698;48.072;7.800;2022-12-10T11:31:36;98511.03;;;0.71;98.99
63552;BME280;49698;48.072;7.800;2022-12-10T11:34:13;98508.41;;;0.71;99.13
63552;BME280;49698;48.072;7.800;2022-12-10T11:36:49;98516.34;;;0.71;99.06
63552;BME280;49698;48.072;7.800;2022-12-10T11:39:38;98514.75;;;0.70;98.76
63552;BME280;49698;48.072;7.800;2022-12-10T11:42:17;98520.03;;;0.70;99.22
63552;BME280;49698;48.072;7.800;2022-12-10T11:44:53;98518.97;;;0.71;99.11
63552;BME280;49698;48.072;7.800;2022-12-10T11:47:35;98510.56;;;0.75;98.99
63552;BME280;49698;48.072;7.800;2022-12-10T11:50:15;98520.34;;;0.74;98.81
63552;BME280;49698;48.072;7.800;2022-12-10T11:52:59;98525.88;;;0.72;98.74
63552;BME280;49698;48.072;7.800;2022-12-10T11:55:37;98532.53;;;0.75;98.86
63552;BME280;49698;48.072;7.800;2022-12-10T11:58:18;98532.84;;;0.79;98.77
63552;BME280;49698;48.072;7.800;2022-12-10T12:01:00;98536.03;;;0.81;98.20
63552;BME280;49698;48.072;7.800;2022-12-10T12:03:55;98534.44;;;0.80;98.43
63552;BME280;49698;48.072;7.800;2022-12-10T12:06:47;98537.66;;;0.82;98.45
63552;BME280;49698;48.072;7.800;2022-12-10T12:09:28;98547.41;;;0.81;98.40
63552;BME280;49698;48.072;7.800;2022-12-10T12:12:09;98548.72;;;0.79;98.32
63552;BME280;49698;48.072;7.800;2022-12-10T12:14:46;98543.44;;;0.79;98.44
63552;BME280;49698;48.072;7.800;2022-12-10T12:17:19;98552.72;;;0.81;98.23
63552;BME280;49698;48.072;7.800;2022-12-10T12:19:51;98551.13;;;0.80;98.27
63552;BME280;49698;48.072;7.800;2022-12-10T12:22:24;98550.56;;;0.78;98.12
63552;BME280;49698;48.072;7.800;2022-12-10T12:24:56;98556.09;;;0.77;98.46
63552;BME280;49698;48.072;7.800;2022-12-10T12:27:32;98564.25;;;0.75;98.60
63552;BME280;49698;48.072;7.800;2022-12-10T12:30:06;98559.78;;;0.76;98.62
63552;BME280;49698;48.072;7.800;2022-12-10T12:32:45;98558.97;;;0.75;98.66
63552;BME280;49698;48.072;7.800;2022-12-10T12:35:17;98564.00;;;0.77;98.76
63552;BME280;49698;48.072;7.800;2022-12-10T12:37:48;98564.59;;;0.79;98.47
63552;BME280;49698;48.072;7.800;2022-12-10T12:40:25;98564.59;;;0.79;98.37
63552;BME280;49698;48.072;7.800;2022-12-10T12:42:59;98562.50;;;0.81;98.41
63552;BME280;49698;48.072;7.800;2022-12-10T12:45:36;98568.84;;;0.80;98.43
63552;BME280;49698;48.072;7.800;2022-12-10T12:48:18;98581.25;;;0.79;98.48
63552;BME280;49698;48.072;7.800;2022-12-10T12:50:54;98578.63;;;0.79;98.36
63552;BME280;49698;48.072;7.800;2022-12-10T12:53:23;98580.47;;;0.79;98.29
63552;BME280;49698;48.072;7.800;2022-12-10T12:55:59;98582.53;;;0.77;98.30
63552;BME280;49698;48.072;7.800;2022-12-10T12:58:37;98582.53;;;0.77;98.50
63552;BME280;49698;48.072;7.800;2022-12-10T13:01:17;98584.97;;;0.78;98.53
63552;BME280;49698;48.072;7.800;2022-12-10T13:03:48;98592.66;;;0.80;98.40
63552;BME280;49698;48.072;7.800;2022-12-10T13:06:20;98597.69;;;0.81;98.44
63552;BME280;49698;48.072;7.800;2022-12-10T13:08:53;98606.44;;;0.82;98.25
63552;BME280;49698;48.072;7.800;2022-12-10T13:11:34;98611.25;;;0.85;98.37
63552;BME280;49698;48.072;7.800;2022-12-10T13:14:16;98608.38;;;0.86;98.09
63552;BME280;49698;48.072;7.800;2022-12-10T13:16:49;98605.94;;;0.85;98.09
63552;BME280;49698;48.072;7.800;2022-12-10T13:19:29;98615.72;;;0.84;97.89
63552;BME280;49698;48.072;7.800;2022-12-10T13:22:03;98611.16;;;0.80;97.96
63552;BME280;49698;48.072;7.800;2022-12-10T13:27:41;98612.22;;;0.79;98.11
63552;BME280;49698;48.072;7.800;2022-12-10T13:30:35;98622.53;;;0.80;98.13
63552;BME280;49698;48.072;7.800;2022-12-10T13:33:16;98613.25;;;0.78;98.11
63552;BME280;49698;48.072;7.800;2022-12-10T13:35:55;98618.78;;;0.76;97.90
63552;BME280;49698;48.072;7.800;2022-12-10T13:38:25;98620.63;;;0.76;98.15